Time;durP1;ratioP1;P1;durP2;ratioP2;P2;SDS_P1;SDS_P2;PMS_P1;PMS_P2;Temp;Humidity;BMP_temperature;BMP_pressure;BME280_temperature;BME280_humidity;BME280_pressure;Samples;Min_cycle;Max_cycle;Signal;HPM_P1;HPM_P2
2022/06/21 00:00:15;;;;;;;0.70;0.70;;;19.30;99.90;;;;;;4162689;28;20134;-43
2022/06/21 00:02:36;;;;;;;0.70;0.70;;;19.40;99.90;;;;;;4162549;28;20587;-42
2022/06/21 00:04:56;;;;;;;2.88;0.70;;;19.40;99.90;;;;;;4162656;28;20515;-43
2022/06/21 00:07:24;;;;;;;0.60;0.60;;;19.40;99.90;;;;;;4165465;28;20122;-45
2022/06/21 00:09:44;;;;;;;0.63;0.63;;;19.20;99.90;;;;;;4170426;28;20051;-44
2022/06/21 00:12:06;;;;;;;2.05;0.77;;;19.10;99.90;;;;;;4172333;28;20091;-44
2022/06/21 00:14:26;;;;;;;0.70;0.70;;;19.20;99.90;;;;;;4162359;28;20133;-42
2022/06/21 00:16:47;;;;;;;4.63;0.80;;;19.20;99.90;;;;;;4162355;28;20096;-43
2022/06/21 00:19:15;;;;;;;0.70;0.70;;;19.00;99.90;;;;;;4162315;28;20064;-45
2022/06/21 00:21:39;;;;;;;4.43;0.88;;;19.00;99.90;;;;;;4162425;28;20473;-44
2022/06/21 00:24:00;;;;;;;0.80;0.60;;;19.00;99.90;;;;;;4162330;28;20180;-44
2022/06/21 00:26:23;;;;;;;1.45;0.70;;;19.00;99.90;;;;;;4162505;28;20049;-44
2022/06/21 00:28:44;;;;;;;1.42;0.75;;;19.00;99.90;;;;;;4163483;28;20052;-44
2022/06/21 00:31:44;;;;;;;1.73;0.70;;;18.80;99.90;;;;;;4177592;28;20530;-43
2022/06/21 00:34:11;;;;;;;0.93;0.70;;;18.80;99.90;;;;;;4159927;28;20053;-43
2022/06/21 00:36:37;;;;;;;2.30;0.80;;;18.60;99.90;;;;;;4159795;28;20504;-43
2022/06/21 00:38:59;;;;;;;1.05;0.80;;;18.50;99.90;;;;;;4172951;28;20052;-43
2022/06/21 00:41:32;;;;;;;1.83;0.70;;;18.30;99.90;;;;;;4176016;28;20052;-43
2022/06/21 00:43:54;;;;;;;0.80;0.80;;;18.00;99.90;;;;;;4175936;28;20063;-44
2022/06/21 00:46:46;;;;;;;3.08;0.70;;;17.90;99.90;;;;;;4175928;28;20579;-43
2022/06/21 00:49:27;;;;;;;0.75;0.75;;;18.20;99.90;;;;;;4160072;28;20085;-42
2022/06/21 00:51:51;;;;;;;3.05;0.70;;;18.30;99.90;;;;;;4176065;28;20541;-43
2022/06/21 00:54:26;;;;;;;0.70;0.70;;;18.50;99.90;;;;;;4168806;28;20072;-42
2022/06/21 00:56:54;;;;;;;1.65;1.23;;;18.60;99.90;;;;;;4159624;28;20555;-42
2022/06/21 00:59:22;;;;;;;1.50;0.70;;;18.60;99.90;;;;;;4157969;28;20099;-44
2022/06/21 01:01:43;;;;;;;1.15;0.70;;;18.40;99.90;;;;;;4159376;28;20151;-44
2022/06/21 01:04:23;;;;;;;1.05;0.82;;;18.20;99.90;;;;;;4159580;28;20052;-44
2022/06/21 01:06:49;;;;;;;0.80;0.77;;;18.40;99.90;;;;;;4158996;28;20088;-42
2022/06/21 01:09:14;;;;;;;0.80;0.80;;;18.00;99.90;;;;;;4161883;28;20099;-43
2022/06/21 01:11:41;;;;;;;1.48;0.80;;;17.90;99.90;;;;;;4169081;28;20094;-45
2022/06/21 01:14:02;;;;;;;4.68;0.77;;;17.90;99.90;;;;;;4177838;28;20102;-44
2022/06/21 01:16:25;;;;;;;1.45;0.70;;;17.80;99.90;;;;;;4178145;28;20128;-43
2022/06/21 01:18:47;;;;;;;2.20;0.70;;;17.50;99.90;;;;;;4177408;28;20071;-43
2022/06/21 01:21:11;;;;;;;0.80;0.80;;;17.70;99.90;;;;;;4177929;28;20051;-46
2022/06/21 01:23:41;;;;;;;0.80;0.80;;;17.70;99.90;;;;;;4177879;28;20080;-44
2022/06/21 01:26:24;;;;;;;2.15;0.80;;;17.50;99.90;;;;;;4177640;28;20523;-43
2022/06/21 01:28:46;;;;;;;2.28;0.80;;;17.60;99.90;;;;;;4177824;28;20603;-43
2022/06/21 01:31:07;;;;;;;0.80;0.80;;;17.50;99.90;;;;;;4177989;28;20118;-43
2022/06/21 01:33:32;;;;;;;0.80;0.80;;;17.50;99.90;;;;;;4177771;28;20106;-44
2022/06/21 01:35:55;;;;;;;0.80;0.80;;;17.40;99.90;;;;;;4177912;28;20048;-42
2022/06/21 01:38:22;;;;;;;2.05;0.80;;;17.40;99.90;;;;;;4177474;28;20102;-44
2022/06/21 01:40:46;;;;;;;1.60;1.10;;;17.40;99.90;;;;;;4177979;28;20561;-43
2022/06/21 01:43:11;;;;;;;0.80;0.80;;;17.50;99.90;;;;;;4177323;28;20043;-44
2022/06/21 01:45:41;;;;;;;0.90;0.90;;;17.50;99.90;;;;;;4178190;28;20056;-45
2022/06/21 01:48:07;;;;;;;0.80;0.80;;;17.40;99.90;;;;;;4177510;28;20132;-43
2022/06/21 01:50:31;;;;;;;2.65;0.90;;;17.40;99.90;;;;;;4170142;28;20047;-43
2022/06/21 01:52:55;;;;;;;1.05;1.05;;;17.40;99.90;;;;;;4160464;28;20072;-44
2022/06/21 01:55:31;;;;;;;1.35;1.00;;;17.00;99.90;;;;;;4161186;28;20061;-43
2022/06/21 01:57:56;;;;;;;0.80;0.80;;;17.10;99.90;;;;;;4160920;28;20531;-46
2022/06/21 02:00:17;;;;;;;1.25;0.90;;;17.10;99.90;;;;;;4160864;28;20115;-43
2022/06/21 02:02:49;;;;;;;0.80;0.80;;;17.10;99.90;;;;;;4161093;28;20137;-44
2022/06/21 02:05:13;;;;;;;2.33;1.10;;;17.10;99.90;;;;;;4161126;28;20091;-44
2022/06/21 02:07:42;;;;;;;0.90;0.90;;;17.20;99.90;;;;;;4166298;28;20052;-43
2022/06/21 02:10:14;;;;;;;2.58;0.98;;;17.20;99.90;;;;;;4166451;28;20048;-43
2022/06/21 02:12:38;;;;;;;1.40;0.90;;;16.90;99.90;;;;;;4171378;28;20090;-45
2022/06/21 02:15:02;;;;;;;2.88;1.20;;;16.70;99.90;;;;;;4160504;28;20060;-45
2022/06/21 02:17:34;;;;;;;1.23;0.93;;;16.80;99.90;;;;;;4165389;28;20067;-42
2022/06/21 02:19:54;;;;;;;0.95;0.80;;;17.00;99.90;;;;;;4163129;28;20172;-45
2022/06/21 02:22:19;;;;;;;0.90;0.90;;;16.80;99.90;;;;;;4163776;28;20146;-44
2022/06/21 02:24:40;;;;;;;1.85;0.90;;;16.70;99.90;;;;;;4160631;28;20057;-43
2022/06/21 02:27:02;;;;;;;2.55;1.00;;;16.60;99.90;;;;;;4160907;28;20563;-44
2022/06/21 02:29:23;;;;;;;0.90;0.90;;;16.40;99.90;;;;;;4160522;28;20048;-44
2022/06/21 02:31:46;;;;;;;0.82;0.82;;;16.40;99.90;;;;;;4160810;28;20052;-42
2022/06/21 02:34:17;;;;;;;1.00;1.00;;;16.50;99.90;;;;;;4161151;28;20060;-44
2022/06/21 02:36:46;;;;;;;1.00;1.00;;;16.60;99.90;;;;;;4162722;28;20059;-43
2022/06/21 02:39:12;;;;;;;1.15;1.10;;;16.60;99.90;;;;;;4163851;28;20103;-43
2022/06/21 02:41:40;;;;;;;1.88;1.10;;;16.60;99.90;;;;;;4163539;28;20072;-44
2022/06/21 02:44:11;;;;;;;2.55;1.10;;;16.60;99.90;;;;;;4172261;28;20060;-43
2022/06/21 02:46:38;;;;;;;3.20;2.05;;;16.60;99.90;;;;;;4163881;28;20088;-44
2022/06/21 02:49:03;;;;;;;1.73;0.90;;;16.70;99.90;;;;;;4163388;28;20052;-43
2022/06/21 02:51:30;;;;;;;1.38;0.90;;;16.50;99.90;;;;;;4163925;28;20057;-45
2022/06/21 02:54:07;;;;;;;1.65;1.33;;;16.30;99.90;;;;;;4163489;28;20096;-44
2022/06/21 02:56:49;;;;;;;1.85;1.00;;;16.10;99.90;;;;;;4163655;28;20149;-46
2022/06/21 02:59:11;;;;;;;1.00;1.00;;;16.10;99.90;;;;;;4163795;28;20044;-45
2022/06/21 03:01:40;;;;;;;4.38;2.20;;;16.30;99.90;;;;;;4163686;28;20052;-42
2022/06/21 03:04:02;;;;;;;1.80;1.05;;;16.20;99.90;;;;;;4163473;28;20067;-43
2022/06/21 03:06:24;;;;;;;0.90;0.90;;;16.20;99.90;;;;;;4163622;28;20084;-45
2022/06/21 03:09:22;;;;;;;1.08;1.08;;;16.00;99.90;;;;;;4178877;28;20060;-44
2022/06/21 03:11:47;;;;;;;1.10;1.00;;;15.80;99.90;;;;;;4210810;28;20059;-44
2022/06/21 03:14:18;;;;;;;4.18;1.27;;;15.70;99.90;;;;;;4210914;28;20141;-44
2022/06/21 03:16:40;;;;;;;1.38;1.17;;;15.70;99.90;;;;;;4210639;28;20062;-43
2022/06/21 03:19:05;;;;;;;1.00;1.00;;;15.80;99.90;;;;;;4210596;28;20497;-44
2022/06/21 03:21:30;;;;;;;3.75;1.00;;;16.10;99.90;;;;;;4210984;28;20055;-42
2022/06/21 03:23:51;;;;;;;1.25;0.90;;;16.30;99.90;;;;;;4210315;28;20055;-44
2022/06/21 03:26:13;;;;;;;1.00;1.00;;;16.40;99.90;;;;;;4210797;28;20047;-44
2022/06/21 03:28:41;;;;;;;2.45;0.90;;;16.20;99.90;;;;;;4210414;28;20125;-45
2022/06/21 03:31:14;;;;;;;1.95;0.90;;;16.10;99.90;;;;;;4210912;28;20061;-43
2022/06/21 03:33:40;;;;;;;1.10;1.10;;;16.20;99.90;;;;;;4210303;28;20503;-44
2022/06/21 03:36:04;;;;;;;2.40;0.95;;;16.20;99.90;;;;;;4210778;28;20051;-44
2022/06/21 03:38:25;;;;;;;1.67;1.20;;;16.10;99.90;;;;;;4210265;28;20044;-42
2022/06/21 03:43:44;;;;;;;1.92;1.10;;;16.00;99.90;;;;;;4199332;28;20509;-44
2022/06/21 03:46:11;;;;;;;1.15;1.10;;;15.80;99.90;;;;;;4188860;28;20068;-45
2022/06/21 03:48:46;;;;;;;1.00;1.00;;;15.80;99.90;;;;;;4170718;28;20051;-44
2022/06/21 03:51:15;;;;;;;2.25;1.10;;;15.80;99.90;;;;;;4163041;28;20052;-43
2022/06/21 03:54:04;;;;;;;1.58;1.00;;;15.80;99.90;;;;;;4162583;28;20141;-45
2022/06/21 03:56:31;;;;;;;1.10;1.10;;;15.90;99.90;;;;;;4162744;28;20158;-44
2022/06/21 03:59:21;;;;;;;0.98;0.98;;;15.90;99.90;;;;;;4162661;28;20057;-44
2022/06/21 04:01:48;;;;;;;1.08;1.08;;;15.70;99.90;;;;;;4162750;28;20153;-43
2022/06/21 04:04:25;;;;;;;2.42;1.30;;;15.60;99.90;;;;;;4162567;28;20052;-44
2022/06/21 04:06:55;;;;;;;1.30;1.20;;;15.60;99.90;;;;;;4162693;28;20068;-46
2022/06/21 04:09:32;;;;;;;1.40;1.40;;;15.60;99.90;;;;;;4162744;28;20115;-45
2022/06/21 04:12:01;;;;;;;1.00;1.00;;;15.50;99.90;;;;;;4172544;28;20095;-43
2022/06/21 04:14:52;;;;;;;1.83;1.73;;;15.50;99.90;;;;;;4175484;28;20091;-42
2022/06/21 04:17:24;;;;;;;1.77;1.20;;;15.70;99.90;;;;;;4171695;28;20136;-43
2022/06/21 04:20:12;;;;;;;2.65;1.13;;;15.70;99.90;;;;;;4162138;28;20060;-44
2022/06/21 04:22:42;;;;;;;2.33;1.10;;;15.60;99.90;;;;;;4163533;28;20052;-42
2022/06/21 04:25:09;;;;;;;1.10;1.10;;;15.80;99.90;;;;;;4162318;28;20080;-43
2022/06/21 04:27:51;;;;;;;2.70;1.27;;;15.80;99.90;;;;;;4162490;28;20053;-43
2022/06/21 04:30:46;;;;;;;3.00;1.20;;;15.80;99.90;;;;;;4162227;28;20103;-43
2022/06/21 04:33:13;;;;;;;1.20;1.00;;;15.70;99.90;;;;;;4161861;28;20048;-45
2022/06/21 04:35:41;;;;;;;1.30;1.20;;;15.80;99.90;;;;;;4162300;28;20053;-43
2022/06/21 04:38:19;;;;;;;1.40;1.40;;;15.80;99.90;;;;;;4162628;28;20134;-45
2022/06/21 04:40:47;;;;;;;1.67;1.58;;;15.90;99.90;;;;;;4162195;28;20103;-44
2022/06/21 04:43:21;;;;;;;2.90;1.40;;;15.80;99.90;;;;;;4165156;28;20040;-43
2022/06/21 04:45:51;;;;;;;1.42;1.30;;;15.80;99.90;;;;;;4172583;28;20298;-43
2022/06/21 04:48:27;;;;;;;1.85;1.63;;;15.80;99.90;;;;;;4162263;28;20111;-42
2022/06/21 04:50:56;;;;;;;1.50;1.40;;;15.80;99.90;;;;;;4172544;28;20132;-43
2022/06/21 04:53:41;;;;;;;3.30;1.40;;;15.80;99.90;;;;;;4161999;28;20052;-43
2022/06/21 04:56:30;;;;;;;1.38;1.27;;;15.70;99.90;;;;;;4162223;28;20060;-44
2022/06/21 04:58:52;;;;;;;1.10;1.10;;;15.80;99.90;;;;;;4161107;28;20060;-44
2022/06/21 05:01:32;;;;;;;1.60;1.58;;;16.00;99.90;;;;;;4161700;28;20099;-44
2022/06/21 05:03:54;;;;;;;3.13;1.10;;;15.90;99.90;;;;;;4161562;28;20130;-43
2022/06/21 05:06:15;;;;;;;1.50;1.10;;;16.00;99.90;;;;;;4161538;28;20111;-42
2022/06/21 05:08:36;;;;;;;1.08;1.08;;;16.10;99.90;;;;;;4165516;28;20044;-42
2022/06/21 05:11:01;;;;;;;2.17;1.95;;;16.20;99.90;;;;;;4170258;28;20056;-44
2022/06/21 05:13:38;;;;;;;1.67;1.58;;;16.30;99.90;;;;;;4177638;28;20596;-42
2022/06/21 05:16:09;;;;;;;4.88;1.10;;;16.20;99.90;;;;;;4178442;28;20391;-43
2022/06/21 05:18:36;;;;;;;4.22;1.85;;;16.30;99.90;;;;;;4177300;28;20106;-43
2022/06/21 05:21:05;;;;;;;1.75;1.20;;;16.30;99.90;;;;;;4171745;28;20059;-42
2022/06/21 05:23:27;;;;;;;1.10;1.10;;;16.30;99.90;;;;;;4160751;28;20063;-44
2022/06/21 05:25:50;;;;;;;1.35;1.08;;;16.50;99.90;;;;;;4160401;28;20602;-43
2022/06/21 05:28:36;;;;;;;2.50;1.10;;;16.50;99.90;;;;;;4160898;28;20100;-43
2022/06/21 05:31:14;;;;;;;3.03;1.10;;;16.60;99.90;;;;;;4161323;28;20129;-43
2022/06/21 05:33:46;;;;;;;1.25;1.20;;;16.70;99.90;;;;;;4161636;28;20056;-43
2022/06/21 05:36:12;;;;;;;1.40;0.90;;;16.70;99.90;;;;;;4161086;28;20111;-44
2022/06/21 05:38:36;;;;;;;1.58;1.33;;;16.70;99.90;;;;;;4163995;28;20129;-43
2022/06/21 05:40:58;;;;;;;1.33;1.23;;;16.70;99.90;;;;;;4177340;28;20056;-43
2022/06/21 05:43:34;;;;;;;2.00;1.00;;;16.80;99.90;;;;;;4177927;28;20051;-42
2022/06/21 05:46:02;;;;;;;1.92;0.90;;;16.80;99.90;;;;;;4177243;28;20103;-42
2022/06/21 05:48:25;;;;;;;2.75;1.10;;;16.90;99.90;;;;;;4162935;28;20554;-45
2022/06/21 05:50:46;;;;;;;3.55;1.00;;;17.10;99.90;;;;;;4175070;28;20079;-43
2022/06/21 05:53:32;;;;;;;1.98;1.10;;;17.30;99.90;;;;;;4177571;28;20475;-43
2022/06/21 05:55:54;;;;;;;1.48;0.98;;;17.30;99.90;;;;;;4177442;28;20139;-44
2022/06/21 05:58:51;;;;;;;1.75;1.00;;;17.50;99.90;;;;;;4169827;28;20455;-43
2022/06/21 06:01:56;;;;;;;3.72;0.90;;;17.50;99.90;;;;;;4180688;28;20094;-43
2022/06/21 06:04:26;;;;;;;0.93;0.93;;;17.80;99.90;;;;;;4105377;28;20049;-42
2022/06/21 06:06:47;;;;;;;1.45;0.90;;;17.80;99.90;;;;;;4108729;28;20422;-43
2022/06/21 06:09:15;;;;;;;3.80;1.20;;;18.10;99.90;;;;;;4093105;29;20098;-43
2022/06/21 06:12:00;;;;;;;1.92;1.38;;;18.20;99.90;;;;;;4110831;28;20073;-46
2022/06/21 06:14:23;;;;;;;0.80;0.80;;;18.40;99.90;;;;;;4106385;28;20066;-46
2022/06/21 06:16:48;;;;;;;1.17;0.95;;;18.40;99.90;;;;;;4110154;28;20068;-43
2022/06/21 06:19:17;;;;;;;2.05;0.90;;;18.50;99.90;;;;;;4104377;28;20062;-44
2022/06/21 06:21:46;;;;;;;1.60;1.20;;;18.80;99.90;;;;;;4105904;28;20190;-44
2022/06/21 06:24:30;;;;;;;1.55;1.42;;;18.90;99.90;;;;;;4107726;28;20049;-44
2022/06/21 06:26:56;;;;;;;1.05;0.90;;;19.20;99.90;;;;;;4104766;28;20076;-43
2022/06/21 06:29:32;;;;;;;1.50;0.80;;;19.60;99.90;;;;;;4101238;28;20054;-44
2022/06/21 06:32:11;;;;;;;2.58;0.82;;;19.70;99.90;;;;;;4107930;28;20121;-44
2022/06/21 06:34:37;;;;;;;1.73;1.20;;;19.60;99.90;;;;;;4127638;28;20594;-42
2022/06/21 06:37:10;;;;;;;0.80;0.80;;;19.70;99.90;;;;;;4183864;28;20566;-44
2022/06/21 06:39:33;;;;;;;2.53;0.73;;;20.00;99.90;;;;;;4170000;28;20594;-43
2022/06/21 06:42:17;;;;;;;1.45;1.05;;;20.40;99.90;;;;;;4160643;28;20115;-43
2022/06/21 06:44:53;;;;;;;2.33;0.95;;;20.50;99.90;;;;;;4175405;28;20060;-44
2022/06/21 06:47:21;;;;;;;4.57;0.88;;;20.60;99.90;;;;;;4160610;28;20056;-43
2022/06/21 06:49:51;;;;;;;2.17;0.80;;;20.90;99.90;;;;;;4165801;28;20051;-43
2022/06/21 06:52:19;;;;;;;3.25;0.80;;;20.90;99.90;;;;;;4170320;28;20462;-44
2022/06/21 06:54:55;;;;;;;1.52;1.02;;;21.00;99.90;;;;;;4160493;28;20056;-46
2022/06/21 06:57:15;;;;;;;1.67;0.80;;;21.00;99.90;;;;;;4160347;28;20056;-43
2022/06/21 06:59:36;;;;;;;1.77;0.70;;;21.00;99.90;;;;;;4160550;28;20511;-43
2022/06/21 07:02:19;;;;;;;2.38;0.80;;;20.90;99.90;;;;;;4160419;28;20117;-45
2022/06/21 07:04:45;;;;;;;1.35;0.80;;;21.00;99.90;;;;;;4160382;28;20103;-43
2022/06/21 07:07:22;;;;;;;1.33;0.88;;;21.10;99.90;;;;;;4161689;28;20408;-43
2022/06/21 07:09:51;;;;;;;4.55;0.80;;;21.40;99.90;;;;;;4160326;28;20068;-44
2022/06/21 07:12:32;;;;;;;0.85;0.75;;;21.40;99.90;;;;;;4172856;28;20213;-44
2022/06/21 07:14:55;;;;;;;1.85;0.70;;;21.70;99.90;;;;;;4167540;28;20540;-45
2022/06/21 07:17:25;;;;;;;1.77;0.60;;;21.90;99.90;;;;;;4160940;28;20412;-44
2022/06/21 07:19:46;;;;;;;4.22;1.17;;;22.20;99.90;;;;;;4160119;28;20057;-44
2022/06/21 07:22:19;;;;;;;1.58;0.70;;;22.30;99.90;;;;;;4160358;28;20072;-44
2022/06/21 07:24:46;;;;;;;0.98;0.70;;;22.80;99.90;;;;;;4163184;28;20425;-44
2022/06/21 07:27:10;;;;;;;1.38;0.60;;;22.80;99.90;;;;;;4162983;28;20076;-43
2022/06/21 07:29:52;;;;;;;0.60;0.60;;;22.80;99.90;;;;;;4163250;28;20100;-44
2022/06/21 07:32:19;;;;;;;3.72;0.70;;;23.00;99.90;;;;;;4163199;28;20400;-44
2022/06/21 07:34:50;;;;;;;3.20;0.65;;;23.50;99.90;;;;;;4162896;28;20052;-44
2022/06/21 07:37:18;;;;;;;0.60;0.60;;;23.80;99.90;;;;;;4163334;28;20103;-44
2022/06/21 07:39:41;;;;;;;5.22;0.70;;;23.80;99.90;;;;;;4162818;28;20068;-44
2022/06/21 07:42:22;;;;;;;3.38;0.60;;;23.90;99.90;;;;;;4163112;28;20056;-42
2022/06/21 07:44:54;;;;;;;2.35;0.60;;;24.00;99.90;;;;;;4179353;28;20056;-44
2022/06/21 07:47:21;;;;;;;1.75;0.60;;;24.00;99.90;;;;;;4166745;28;20065;-42
2022/06/21 07:49:58;;;;;;;0.50;0.50;;;24.20;99.90;;;;;;4167947;28;20059;-46
2022/06/21 07:52:50;;;;;;;1.67;0.55;;;24.30;99.90;;;;;;4177266;28;20439;-43
2022/06/21 07:55:19;;;;;;;0.98;0.60;;;24.30;99.90;;;;;;4163074;28;20061;-42
2022/06/21 07:57:46;;;;;;;2.88;0.50;;;24.40;99.90;;;;;;4162722;28;20106;-44
2022/06/21 08:00:12;;;;;;;1.83;0.60;;;24.60;99.90;;;;;;4175935;28;20045;-44
2022/06/21 08:08:18;;;;;;;0.60;0.50;;;24.50;99.90;;;;;;4171305;28;20077;-44
2022/06/21 08:11:00;;;;;;;0.90;0.55;;;24.50;99.90;;;;;;4162500;28;20527;-43
2022/06/21 08:13:21;;;;;;;4.82;0.50;;;25.20;99.90;;;;;;4162569;28;20413;-44
2022/06/21 08:16:00;;;;;;;2.10;0.55;;;25.10;99.90;;;;;;4161594;28;20092;-44
2022/06/21 08:18:42;;;;;;;1.27;0.50;;;25.40;99.90;;;;;;4168084;28;20409;-44
2022/06/21 08:21:15;;;;;;;1.33;0.40;;;25.60;99.10;;;;;;4162160;28;20055;-43
2022/06/21 08:23:46;;;;;;;0.40;0.40;;;25.70;99.20;;;;;;4162465;28;20216;-42
2022/06/21 08:26:19;;;;;;;1.42;0.47;;;25.50;98.40;;;;;;4161217;28;20052;-43
2022/06/21 08:28:43;;;;;;;0.57;0.50;;;25.20;98.20;;;;;;4162373;28;20052;-44
2022/06/21 08:31:14;;;;;;;1.10;0.50;;;25.70;99.90;;;;;;4162433;28;20068;-46
2022/06/21 08:33:51;;;;;;;1.92;0.50;;;26.10;99.50;;;;;;4160437;28;20539;-43
2022/06/21 08:36:29;;;;;;;1.10;0.40;;;26.30;97.70;;;;;;4162044;28;20052;-43
2022/06/21 08:38:56;;;;;;;0.60;0.50;;;26.30;97.90;;;;;;4162292;28;20055;-45
2022/06/21 08:41:55;;;;;;;2.10;0.47;;;26.60;98.00;;;;;;4161918;28;20071;-43
2022/06/21 08:44:46;;;;;;;3.22;0.50;;;26.00;96.40;;;;;;4162026;28;20056;-44
2022/06/21 08:47:37;;;;;;;0.50;0.50;;;26.00;98.20;;;;;;4161773;28;20512;-43
2022/06/21 08:51:04;;;;;;;0.73;0.73;;;26.60;98.20;;;;;;4164836;28;20099;-41
2022/06/21 08:53:43;;;;;;;1.75;0.47;;;26.60;96.70;;;;;;4165613;28;20511;-42
2022/06/21 08:56:10;;;;;;;1.30;0.50;;;26.20;96.40;;;;;;4176129;28;20546;-43
2022/06/21 08:58:45;;;;;;;0.75;0.60;;;26.40;97.30;;;;;;4175841;28;20091;-43
2022/06/21 09:01:15;;;;;;;1.45;0.50;;;26.70;97.20;;;;;;4176256;28;20145;-43
2022/06/21 09:03:45;;;;;;;3.50;0.40;;;27.00;97.00;;;;;;4175802;28;20079;-45
2022/06/21 09:06:47;;;;;;;3.00;0.73;;;26.90;96.10;;;;;;4175876;28;20064;-43
2022/06/21 09:09:40;;;;;;;2.58;0.50;;;26.60;98.20;;;;;;4163498;28;20227;-46
2022/06/21 09:12:22;;;;;;;0.50;0.50;;;27.30;97.10;;;;;;4158524;28;20048;-43
2022/06/21 09:15:07;;;;;;;1.42;0.50;;;27.00;96.60;;;;;;4175421;28;20099;-44
2022/06/21 09:17:41;;;;;;;1.27;0.50;;;27.00;96.40;;;;;;4175203;28;20052;-42
2022/06/21 09:20:25;;;;;;;0.57;0.50;;;27.20;95.80;;;;;;4175374;28;20185;-44
2022/06/21 09:23:25;;;;;;;0.43;0.43;;;27.70;97.00;;;;;;4175691;28;20139;-43
2022/06/21 09:26:11;;;;;;;0.47;0.47;;;27.90;95.80;;;;;;4167547;28;20055;-43
2022/06/21 09:29:02;;;;;;;1.40;0.47;;;27.60;95.30;;;;;;4161308;28;20058;-43
2022/06/21 09:31:41;;;;;;;0.40;0.40;;;27.30;95.90;;;;;;4161221;28;20060;-44
2022/06/21 09:34:09;;;;;;;1.95;0.43;;;27.10;96.80;;;;;;4161324;28;20052;-43
2022/06/21 09:37:08;;;;;;;0.40;0.40;;;27.50;96.40;;;;;;4161122;28;20068;-42
2022/06/21 09:39:55;;;;;;;0.93;0.40;;;27.50;96.20;;;;;;4161194;28;20501;-43
2022/06/21 09:42:25;;;;;;;0.45;0.40;;;27.40;95.30;;;;;;4161206;28;20080;-44
2022/06/21 09:44:55;;;;;;;1.10;0.40;;;27.40;95.30;;;;;;4160662;28;20060;-44
2022/06/21 09:47:49;;;;;;;0.77;0.50;;;27.20;95.00;;;;;;4164829;28;20119;-44
2022/06/21 09:50:12;;;;;;;1.92;0.40;;;27.50;94.50;;;;;;4168376;28;20051;-45
2022/06/21 09:53:07;;;;;;;0.45;0.45;;;27.50;95.40;;;;;;4171284;28;20056;-43
2022/06/21 09:55:52;;;;;;;0.65;0.50;;;27.70;95.10;;;;;;4166988;28;20502;-43
2022/06/21 09:58:21;;;;;;;0.60;0.60;;;27.80;95.00;;;;;;4163867;28;20135;-43
2022/06/21 10:00:50;;;;;;;2.17;0.43;;;27.90;94.40;;;;;;4160744;28;20079;-46
2022/06/21 10:03:36;;;;;;;0.88;0.40;;;28.10;94.60;;;;;;4163363;28;20536;-44
2022/06/21 10:06:23;;;;;;;0.40;0.40;;;28.20;94.30;;;;;;4165320;28;20065;-43
2022/06/21 10:09:05;;;;;;;0.40;0.40;;;28.10;94.60;;;;;;4167184;28;20132;-44
2022/06/21 10:11:48;;;;;;;0.55;0.40;;;28.50;94.30;;;;;;4165753;28;20059;-42
2022/06/21 10:14:48;;;;;;;0.43;0.43;;;28.60;93.90;;;;;;4160668;28;20051;-44
2022/06/21 10:17:29;;;;;;;1.05;0.43;;;28.50;93.60;;;;;;4151269;28;20044;-44
2022/06/21 10:20:20;;;;;;;0.57;0.50;;;29.00;95.10;;;;;;4167706;28;20099;-44
2022/06/21 10:22:56;;;;;;;2.75;0.50;;;28.80;92.70;;;;;;4173497;28;20079;-44
2022/06/21 10:25:37;;;;;;;0.50;0.50;;;28.60;94.60;;;;;;4173248;28;20661;-43
2022/06/21 10:28:12;;;;;;;1.77;0.40;;;29.00;92.60;;;;;;4168575;28;20052;-44
2022/06/21 10:30:48;;;;;;;0.45;0.43;;;29.50;94.00;;;;;;4163038;28;20049;-44
2022/06/21 10:33:27;;;;;;;0.90;0.50;;;29.50;92.80;;;;;;4165849;28;20098;-43
2022/06/21 10:35:57;;;;;;;0.40;0.40;;;29.20;93.50;;;;;;4172316;28;20130;-43
2022/06/21 10:38:39;;;;;;;0.50;0.40;;;29.40;93.70;;;;;;4171303;28;20052;-44
2022/06/21 10:41:21;;;;;;;0.60;0.50;;;29.20;92.10;;;;;;4169838;28;20080;-43
2022/06/21 10:43:51;;;;;;;6.28;0.50;;;29.00;92.60;;;;;;4174366;28;20083;-43
2022/06/21 10:46:26;;;;;;;0.50;0.50;;;29.40;91.90;;;;;;4173409;28;20122;-44
2022/06/21 10:49:35;;;;;;;0.50;0.40;;;29.80;93.80;;;;;;4174528;28;20067;-45
2022/06/21 10:52:11;;;;;;;0.50;0.50;;;29.60;91.30;;;;;;4126395;28;20081;-44
2022/06/21 10:54:46;;;;;;;0.50;0.43;;;29.50;92.50;;;;;;4163597;28;20048;-45
2022/06/21 10:57:51;;;;;;;0.40;0.40;;;29.50;91.50;;;;;;4164428;28;20052;-44
2022/06/21 11:03:28;;;;;;;1.15;0.60;;;29.50;91.90;;;;;;4163313;28;20111;-42
2022/06/21 11:06:21;;;;;;;2.05;0.40;;;29.50;92.00;;;;;;4170806;28;20059;-44
2022/06/21 11:09:03;;;;;;;0.73;0.40;;;29.70;92.00;;;;;;4174897;28;20412;-43
2022/06/21 11:11:47;;;;;;;6.30;0.60;;;30.30;92.40;;;;;;4169991;28;20107;-44
2022/06/21 11:14:43;;;;;;;0.52;0.40;;;29.50;90.80;;;;;;4163347;28;20080;-44
2022/06/21 11:17:37;;;;;;;2.38;0.60;;;29.70;92.30;;;;;;4166624;28;20056;-43
2022/06/21 11:20:27;;;;;;;0.40;0.40;;;30.10;90.60;;;;;;4160527;28;20103;-44
2022/06/21 11:22:57;;;;;;;2.05;0.50;;;30.40;91.60;;;;;;4158737;28;20061;-44
2022/06/21 11:25:59;;;;;;;0.40;0.40;;;30.70;90.40;;;;;;4160969;28;20096;-45
2022/06/21 11:29:23;;;;;;;0.60;0.60;;;30.30;90.40;;;;;;4161163;28;20051;-44
2022/06/21 11:32:10;;;;;;;1.65;0.40;;;30.70;90.90;;;;;;4111262;28;20062;-44
2022/06/21 11:34:42;;;;;;;0.30;0.30;;;31.30;90.30;;;;;;4172288;28;20072;-42
2022/06/21 11:37:14;;;;;;;1.50;0.40;;;31.50;90.20;;;;;;4176552;28;20196;-42
2022/06/21 11:39:40;;;;;;;0.40;0.40;;;31.30;87.70;;;;;;4177422;28;20059;-45
2022/06/21 11:42:31;;;;;;;0.50;0.50;;;31.00;87.90;;;;;;4163163;28;20056;-43
2022/06/21 11:45:23;;;;;;;0.43;0.38;;;31.00;90.50;;;;;;4173848;28;20527;-45
2022/06/21 11:47:53;;;;;;;2.03;0.30;;;31.00;87.50;;;;;;4160508;28;20053;-43
2022/06/21 11:50:18;;;;;;;2.75;0.85;;;30.60;88.40;;;;;;4160853;28;20057;-43
2022/06/21 11:53:00;;;;;;;0.43;0.40;;;31.10;88.50;;;;;;4160786;28;20088;-42
2022/06/21 11:55:42;;;;;;;1.30;0.40;;;31.40;89.90;;;;;;4168104;28;20522;-43
2022/06/21 11:58:23;;;;;;;2.70;0.35;;;30.90;86.70;;;;;;4163151;28;20051;-42
2022/06/21 12:01:06;;;;;;;0.60;0.35;;;31.40;90.30;;;;;;4162901;28;20131;-43
2022/06/21 12:03:46;;;;;;;1.65;0.40;;;31.20;86.30;;;;;;4162718;28;20103;-43
2022/06/21 12:06:34;;;;;;;2.85;0.40;;;31.40;86.60;;;;;;4172192;28;20106;-43
2022/06/21 12:09:02;;;;;;;0.40;0.32;;;31.50;85.60;;;;;;4162125;28;20084;-43
2022/06/21 12:11:47;;;;;;;0.60;0.40;;;31.00;85.90;;;;;;4169181;28;20111;-43
2022/06/21 12:14:13;;;;;;;0.90;0.40;;;31.00;86.00;;;;;;4162633;28;20525;-45
2022/06/21 12:17:03;;;;;;;0.40;0.40;;;31.00;87.90;;;;;;4162852;28;20551;-43
2022/06/21 12:19:29;;;;;;;0.52;0.40;;;31.20;85.40;;;;;;4171165;28;20122;-43
2022/06/21 12:22:01;;;;;;;1.17;0.40;;;31.30;85.50;;;;;;4162242;28;20472;-42
2022/06/21 12:24:25;;;;;;;0.70;0.40;;;31.20;86.80;;;;;;4167026;28;20409;-43
2022/06/21 12:26:47;;;;;;;1.10;0.40;;;31.10;85.50;;;;;;4166109;28;20048;-44
2022/06/21 12:29:17;;;;;;;1.75;0.40;;;31.10;86.80;;;;;;4175062;28;20088;-44
2022/06/21 12:31:44;;;;;;;4.95;0.40;;;30.90;85.90;;;;;;4172582;28;20134;-44
2022/06/21 12:34:19;;;;;;;1.48;0.40;;;31.00;83.50;;;;;;4163368;28;20618;-43
2022/06/21 12:36:42;;;;;;;1.42;0.40;;;30.80;83.10;;;;;;4164606;28;20133;-44
2022/06/21 12:39:39;;;;;;;1.20;0.50;;;31.50;85.70;;;;;;4162289;28;20523;-45
2022/06/21 12:42:37;;;;;;;4.15;0.40;;;31.60;84.50;;;;;;4169222;28;20562;-42
2022/06/21 12:45:35;;;;;;;3.15;0.30;;;31.50;82.60;;;;;;4168364;28;20056;-46
2022/06/21 12:48:12;;;;;;;1.17;0.40;;;31.40;84.50;;;;;;4159228;28;20056;-44
2022/06/21 12:50:54;;;;;;;0.40;0.40;;;31.80;83.60;;;;;;4164995;28;20060;-43
2022/06/21 12:53:28;;;;;;;2.15;0.40;;;31.70;83.50;;;;;;4162684;28;20056;-44
2022/06/21 12:56:14;;;;;;;2.72;0.50;;;31.70;84.90;;;;;;4161415;28;20056;-44
2022/06/21 12:59:16;;;;;;;2.15;0.40;;;31.70;82.60;;;;;;4161348;28;20055;-43
2022/06/21 13:01:46;;;;;;;2.63;0.63;;;31.90;83.50;;;;;;4160940;28;20115;-44
2022/06/21 13:04:41;;;;;;;0.40;0.40;;;32.00;81.70;;;;;;4161015;28;20051;-44
2022/06/21 13:07:20;;;;;;;1.35;0.35;;;32.30;81.90;;;;;;4161801;28;20523;-42
2022/06/21 13:10:05;;;;;;;0.93;0.40;;;31.80;83.00;;;;;;4162449;28;20052;-46
2022/06/21 13:12:41;;;;;;;1.45;0.40;;;31.40;81.90;;;;;;4164806;28;20408;-44
2022/06/21 13:15:19;;;;;;;3.28;0.50;;;31.60;82.30;;;;;;4161644;28;20048;-43
2022/06/21 13:17:58;;;;;;;2.55;0.45;;;32.00;84.40;;;;;;4166198;28;20126;-44
2022/06/21 13:20:40;;;;;;;1.98;0.40;;;32.10;83.40;;;;;;4160253;28;20141;-43
2022/06/21 13:23:37;;;;;;;0.85;0.43;;;32.00;82.30;;;;;;4161583;28;20051;-43
2022/06/21 13:26:24;;;;;;;1.63;0.40;;;31.70;81.30;;;;;;4161565;28;20060;-43
2022/06/21 13:28:57;;;;;;;0.43;0.40;;;31.70;81.40;;;;;;4160308;28;20587;-44
2022/06/21 13:31:24;;;;;;;0.65;0.40;;;31.70;83.10;;;;;;4161075;28;20052;-43
2022/06/21 13:33:53;;;;;;;2.17;0.40;;;32.00;84.10;;;;;;4161264;28;20449;-43